PAIL

Iliamna Airport

Iliamna, Alaska, USA
PAIL 200525Z 2006/2106 01008KT P6SM SKC
Issued Valid From Valid To
Jan-20 @ 05:25 UTC
(6 hours ago)
Jan-20 @ 06:00 UTC
(6 hours ago)
Jan-21 @ 06:00 UTC
(in 18 hours)
Jan-20 @ 06:00 to Jan-21 @ 06:00
PAIL 200525Z 2006/2106 01008KT P6SM SKC
Wind Visibility Clouds
10° at 8 knots Greater than 6 miles
  • Clear skies
PAIL 200525Z 2006/2106 01008KT P6SM SKC
Issued Jan-20 @ 05:25 UTC
(6 hours ago)
Valid From Jan-20 @ 06:00 UTC
(6 hours ago)
Valid To Jan-21 @ 06:00 UTC
(in 18 hours)
Jan-20 @ 06:00 - Jan-21 @ 06:00
Wind Visibility
10° at 8 knots Greater than 6 miles
Clouds
  • Clear skies